Aviation Digital Data Service (ADDS)

Output produced by METARs form (1630 UTC 22 November 2014)
found at http://aviationweather.gov/adds/metars/
 
KAEX 221553Z 13010KT 10SM CLR 18/12 A3016 RMK AO2 SLP218 T01780117